createdAt,value
2019-05-21T00:04:40.386Z,22.7
2019-05-21T00:14:43.739Z,22.7
2019-05-21T00:24:47.113Z,22.6
2019-05-21T00:34:50.785Z,22.5
2019-05-21T00:44:54.221Z,22.4
2019-05-21T00:54:57.546Z,22.4
2019-05-21T01:05:01.632Z,22.3
2019-05-21T01:15:05.117Z,22.4
2019-05-21T01:25:08.449Z,22.3
2019-05-21T01:35:16.974Z,22.3
2019-05-21T01:45:21.060Z,22.4
2019-05-21T01:55:24.404Z,22.4
2019-05-21T02:05:32.880Z,22.3
2019-05-21T02:15:37.105Z,22.3
2019-05-21T02:25:40.493Z,22.4
2019-05-21T02:35:53.327Z,22.4
2019-05-21T02:45:58.605Z,22.4
2019-05-21T02:56:02.011Z,22.4
2019-05-21T03:06:13.526Z,22.4
2019-05-21T03:16:18.642Z,22.3
2019-05-21T03:26:22.079Z,22.2
2019-05-21T03:36:33.050Z,22.1
2019-05-21T03:46:38.087Z,22.1
2019-05-21T03:56:41.470Z,22
2019-05-21T04:06:51.608Z,22
2019-05-21T04:16:56.275Z,21.9
2019-05-21T04:26:59.712Z,21.9
2019-05-21T04:37:10.255Z,21.9
2019-05-21T04:47:20.925Z,21.8
2019-05-21T04:57:24.343Z,21.9
2019-05-21T05:07:28.905Z,22
2019-05-21T05:17:32.437Z,22.1
2019-05-21T05:27:35.889Z,22.1
2019-05-21T05:37:43.500Z,22.1
2019-05-21T05:47:52.547Z,22.4
2019-05-21T05:57:55.884Z,22.5
2019-05-21T06:08:00.440Z,22.7
2019-05-21T06:18:04.094Z,22.8
2019-05-21T06:28:07.668Z,22.9
2019-05-21T06:38:17.475Z,23
2019-05-21T06:48:21.914Z,23.1
2019-05-21T06:58:25.254Z,23.2
2019-05-21T07:08:34.423Z,23.3
2019-05-21T07:18:41.280Z,23.4
2019-05-21T07:28:45.108Z,23.5
2019-05-21T07:38:53.975Z,23.6
2019-05-21T07:48:57.884Z,23.8
2019-05-21T07:59:01.485Z,23.9
2019-05-21T08:09:13.012Z,24
2019-05-21T08:19:18.490Z,24.1
2019-05-21T08:29:21.810Z,24.3
2019-05-21T08:39:28.581Z,24.4
2019-05-21T08:49:32.824Z,24.5
2019-05-21T08:59:36.156Z,24.6
2019-05-21T09:09:49.713Z,24.5
2019-05-21T09:19:55.584Z,24.6
2019-05-21T09:29:58.928Z,24.6
2019-05-21T09:40:02.508Z,24.8
2019-05-21T09:50:06.197Z,24.9
2019-05-21T10:00:10.420Z,25
2019-05-21T10:10:13.743Z,25
2019-05-21T10:20:17.076Z,25
2019-05-21T10:30:20.405Z,22.6
2019-05-21T10:40:23.721Z,23.8
2019-05-21T10:50:27.073Z,24.3
2019-05-21T11:00:30.409Z,24.4
2019-05-21T11:10:33.746Z,24.5
2019-05-21T11:20:37.106Z,24.5
2019-05-21T11:30:40.448Z,24.6
2019-05-21T11:40:43.917Z,24.7
2019-05-21T11:50:53.896Z,24.9
2019-05-21T12:00:57.277Z,24.9
2019-05-21T12:11:00.658Z,24.8
2019-05-21T12:21:03.991Z,24.9
2019-05-21T12:31:07.364Z,24.7
2019-05-21T12:41:13.467Z,25
2019-05-21T12:51:17.556Z,25
2019-05-21T13:01:20.863Z,25.1
2019-05-21T13:11:24.228Z,25.2
2019-05-21T13:21:27.561Z,23.2
2019-05-21T13:31:30.907Z,24.1
2019-05-21T13:41:34.270Z,24.7
2019-05-21T13:51:37.744Z,24.9
2019-05-21T14:01:41.779Z,25.1
2019-05-21T14:11:45.218Z,25.1
2019-05-21T14:21:48.563Z,25.2
2019-05-21T14:31:51.913Z,25.3
2019-05-21T14:41:55.257Z,25.3
2019-05-21T14:51:58.674Z,25.4
2019-05-21T15:02:02.018Z,25.3
2019-05-21T15:12:05.354Z,25.3
2019-05-21T15:22:08.686Z,25.4
2019-05-21T15:32:12.030Z,25.3
2019-05-21T15:42:15.378Z,25.3
2019-05-21T15:52:18.744Z,25.1
2019-05-21T16:02:22.079Z,25.2
2019-05-21T16:12:25.472Z,25.2
2019-05-21T16:22:28.853Z,25.2
2019-05-21T16:32:32.374Z,25
2019-05-21T16:42:35.722Z,25.2
2019-05-21T16:52:39.100Z,25.2
2019-05-21T17:02:42.529Z,25.2
2019-05-21T17:12:45.882Z,25.2
2019-05-21T17:22:49.223Z,25.2
2019-05-21T17:32:52.583Z,25.2
2019-05-21T17:42:55.915Z,25.2
2019-05-21T17:52:59.268Z,25.1
2019-05-21T18:03:02.598Z,25.1
2019-05-21T18:13:06.066Z,25.1
2019-05-21T18:23:09.393Z,25
2019-05-21T18:33:12.723Z,25
2019-05-21T18:43:16.094Z,25
2019-05-21T18:53:19.440Z,24.9
2019-05-21T19:03:26.074Z,24.9
2019-05-21T19:13:29.609Z,24.9
2019-05-21T19:23:32.952Z,24.8
2019-05-21T19:33:36.277Z,24.8
2019-05-21T19:43:39.613Z,24.8
2019-05-21T19:53:43.934Z,24.7
2019-05-21T20:03:47.264Z,24.7
2019-05-21T20:13:50.626Z,24.6
2019-05-21T20:23:53.958Z,24.6
2019-05-21T20:33:57.309Z,24.6
2019-05-21T20:44:00.625Z,24.6
2019-05-21T20:54:03.960Z,24.5
2019-05-21T21:04:07.325Z,24.5
2019-05-21T21:14:17.756Z,24.5
2019-05-21T21:24:21.956Z,24.5
2019-05-21T21:34:25.299Z,24.4
2019-05-21T21:44:33.773Z,24.4
2019-05-21T21:54:37.889Z,24.4
2019-05-21T22:04:41.384Z,24.4
2019-05-21T22:14:50.789Z,24.3
2019-05-21T22:24:55.927Z,24.3
2019-05-21T22:34:59.331Z,24.3
2019-05-21T22:45:08.250Z,24.3
2019-05-21T22:55:12.597Z,24.2
2019-05-21T23:05:15.909Z,24.2
2019-05-21T23:15:24.725Z,24.2
2019-05-21T23:25:29.142Z,24.2
2019-05-21T23:35:32.478Z,24.2
2019-05-21T23:45:35.841Z,24.2
2019-05-21T23:55:39.187Z,24.1
